createdAt,value
2019-05-20T00:01:35.909Z,54477.96
2019-05-20T00:04:04.579Z,54505.36
2019-05-20T00:06:33.270Z,54457.67
2019-05-20T00:09:01.780Z,54465.79
2019-05-20T00:11:30.233Z,54441.44
2019-05-20T00:13:58.868Z,54427.23
2019-05-20T00:16:27.315Z,54456.66
2019-05-20T00:18:55.998Z,54406.94
2019-05-20T00:21:24.663Z,54424.19
2019-05-20T00:23:53.385Z,54445.50
2019-05-20T00:26:22.072Z,54451.58
2019-05-20T00:28:50.479Z,54459.70
2019-05-20T00:31:27.959Z,54465.79
2019-05-20T00:33:56.277Z,54487.10
2019-05-20T00:36:24.674Z,54514.49
2019-05-20T00:39:11.277Z,54444.48
2019-05-20T00:41:39.911Z,54381.57
2019-05-20T00:44:08.422Z,54405.93
2019-05-20T00:46:36.833Z,54419.11
2019-05-20T00:49:05.568Z,54336.93
2019-05-20T00:51:33.963Z,54349.11
2019-05-20T00:54:02.657Z,54315.62
2019-05-20T00:56:31.448Z,54349.11
2019-05-20T00:58:59.916Z,54330.84
2019-05-20T01:01:28.442Z,54268.95
2019-05-20T01:03:56.917Z,54127.92
2019-05-20T01:06:25.800Z,54070.09
2019-05-20T01:08:54.174Z,53995.02
2019-05-20T01:11:22.577Z,53937.18
2019-05-20T01:13:58.600Z,53909.79
2019-05-20T01:16:26.990Z,53879.36
2019-05-20T01:18:55.676Z,53877.33
2019-05-20T01:21:24.086Z,53848.92
2019-05-20T01:23:52.755Z,53761.68
2019-05-20T01:26:21.161Z,53726.17
2019-05-20T01:28:49.575Z,53745.45
2019-05-20T01:31:18.324Z,53735.30
2019-05-20T01:33:46.696Z,53700.81
2019-05-20T01:36:15.313Z,53711.96
2019-05-20T01:38:43.819Z,53687.62
2019-05-20T01:41:12.275Z,53732.25
2019-05-20T01:43:40.697Z,53774.86
2019-05-20T01:46:09.152Z,53746.46
2019-05-20T01:48:37.644Z,53767.76
2019-05-20T01:51:06.308Z,53744.43
2019-05-20T01:53:34.694Z,53725.16
2019-05-20T01:56:03.451Z,53665.30
2019-05-20T01:58:31.875Z,53649.07
2019-05-20T02:01:00.285Z,53657.19
2019-05-20T02:03:32.197Z,53657.19
2019-05-20T02:05:59.122Z,53627.77
2019-05-20T02:08:27.597Z,53613.57
2019-05-20T02:10:56.887Z,53624.72
2019-05-20T02:13:27.233Z,53614.58
2019-05-20T02:16:00.471Z,53619.65
2019-05-20T02:18:28.918Z,53623.71
2019-05-20T02:20:57.367Z,53596.32
2019-05-20T02:23:26.128Z,53599.36
2019-05-20T02:26:03.171Z,53587.19
2019-05-20T02:28:31.505Z,53538.50
2019-05-20T02:31:00.188Z,53550.67
2019-05-20T02:33:28.615Z,53507.05
2019-05-20T02:35:57.252Z,53515.16
2019-05-20T02:38:25.655Z,53479.66
2019-05-20T02:40:54.054Z,53447.20
2019-05-20T02:43:22.499Z,53412.71
2019-05-20T02:45:51.397Z,53395.46
2019-05-20T02:48:19.802Z,53380.25
2019-05-20T02:50:48.193Z,53442.12
2019-05-20T02:53:16.605Z,53383.29
2019-05-20T02:55:45.001Z,53273.74
2019-05-20T02:58:13.417Z,53295.04
2019-05-20T03:00:42.107Z,53219.98
2019-05-20T03:03:10.805Z,53241.28
2019-05-20T03:05:39.439Z,53239.25
2019-05-20T03:08:24.025Z,53262.58
2019-05-20T03:10:52.738Z,53209.84
2019-05-20T03:13:21.157Z,53196.65
2019-05-20T03:15:49.766Z,53212.88
2019-05-20T03:18:18.184Z,53247.37
2019-05-20T03:20:46.876Z,53227.08
2019-05-20T03:23:15.283Z,53238.24
2019-05-20T03:25:44.349Z,53204.77
2019-05-20T03:28:12.979Z,53195.63
2019-05-20T03:30:41.845Z,53172.30
2019-05-20T03:33:10.839Z,53149.99
2019-05-20T03:35:39.252Z,53099.27
2019-05-20T03:38:07.648Z,53155.06
2019-05-20T03:40:36.048Z,53131.73
2019-05-20T03:43:04.622Z,53156.07
2019-05-20T03:45:33.264Z,53128.69
2019-05-20T03:48:01.662Z,53171.29
2019-05-20T03:50:30.078Z,53238.24
2019-05-20T03:52:58.462Z,53255.48
2019-05-20T03:55:26.871Z,53288.96
2019-05-20T03:57:55.594Z,53337.64
2019-05-20T04:00:43.983Z,53376.19
2019-05-20T04:03:12.928Z,53420.82
2019-05-20T04:05:41.650Z,53412.71
2019-05-20T04:08:10.060Z,53444.16
2019-05-20T04:10:38.890Z,53445.17
2019-05-20T04:13:07.578Z,53467.49
2019-05-20T04:15:35.991Z,53455.31
2019-05-20T04:18:04.409Z,53470.53
2019-05-20T04:20:32.826Z,53527.34
2019-05-20T04:23:01.230Z,53549.65
2019-05-20T04:25:29.629Z,53535.45
2019-05-20T04:27:58.050Z,53571.97
2019-05-20T04:30:26.789Z,53558.79
2019-05-20T04:32:55.178Z,53575.02
2019-05-20T04:35:23.779Z,53605.45
2019-05-20T04:37:52.644Z,53638.93
2019-05-20T04:40:21.049Z,53621.68
2019-05-20T04:42:49.715Z,53660.23
2019-05-20T04:45:18.509Z,53646.03
2019-05-20T04:47:46.892Z,53671.39
2019-05-20T04:50:15.442Z,53675.45
2019-05-20T04:52:44.167Z,53704.87
2019-05-20T04:55:13.067Z,53751.53
2019-05-20T04:57:41.498Z,53808.34
2019-05-20T05:00:10.534Z,53813.41
2019-05-20T05:02:42.943Z,53796.17
2019-05-20T05:05:09.814Z,53734.29
2019-05-20T05:07:38.181Z,53788.05
2019-05-20T05:10:08.666Z,53857.04
2019-05-20T05:12:37.204Z,53890.52
2019-05-20T05:15:10.191Z,53924.00
2019-05-20T05:17:38.585Z,53905.73
2019-05-20T05:20:07.451Z,53935.16
2019-05-20T05:25:09.466Z,58246.20
2019-05-20T05:27:37.859Z,53994.00
2019-05-20T05:30:07.102Z,54040.67
2019-05-20T05:32:41.470Z,54048.79
2019-05-20T05:35:12.204Z,54038.64
2019-05-20T05:37:40.601Z,54007.19
2019-05-20T05:40:09.322Z,53995.02
2019-05-20T05:42:37.963Z,54058.93
2019-05-20T05:45:08.201Z,54123.86
2019-05-20T05:47:36.840Z,54082.27
2019-05-20T05:50:09.473Z,54098.50
2019-05-20T05:52:37.871Z,54049.80
2019-05-20T05:55:06.644Z,54019.36
2019-05-20T05:57:35.282Z,53963.56
2019-05-20T06:00:06.656Z,53905.73
2019-05-20T06:02:35.051Z,54084.29
2019-05-20T06:05:04.223Z,54112.70
2019-05-20T06:07:32.913Z,54059.95
2019-05-20T06:10:01.303Z,54083.28
2019-05-20T06:12:29.701Z,54173.58
2019-05-20T06:14:58.375Z,54155.32
2019-05-20T06:17:26.770Z,54147.20
2019-05-20T06:19:55.438Z,54126.91
2019-05-20T06:22:24.136Z,54149.23
2019-05-20T06:24:52.539Z,54188.80
2019-05-20T06:27:21.013Z,54159.37
2019-05-20T06:29:49.527Z,54176.62
2019-05-20T06:32:17.991Z,54176.62
2019-05-20T06:34:46.473Z,54230.39
2019-05-20T06:37:32.129Z,54297.36
2019-05-20T06:40:00.864Z,54240.54
2019-05-20T06:42:29.285Z,54288.23
2019-05-20T06:44:57.670Z,54249.67
2019-05-20T06:47:26.101Z,54259.82
2019-05-20T06:49:54.498Z,54177.64
2019-05-20T06:52:35.255Z,54243.58
2019-05-20T06:54:53.380Z,54203.00
2019-05-20T06:57:23.935Z,54322.72
2019-05-20T06:59:52.022Z,54430.28
2019-05-20T07:02:20.421Z,54431.29
2019-05-20T07:04:49.047Z,54390.70
2019-05-20T07:07:20.758Z,54398.82
2019-05-20T07:09:47.581Z,54416.07
2019-05-20T07:12:15.989Z,54457.67
2019-05-20T07:14:44.677Z,54441.44
2019-05-20T07:17:13.426Z,54422.16
2019-05-20T07:19:41.831Z,54396.79
2019-05-20T07:22:10.221Z,54401.87
2019-05-20T07:24:38.886Z,54425.20
2019-05-20T07:27:07.305Z,54494.20
2019-05-20T07:29:36.067Z,54478.98
2019-05-20T07:32:06.707Z,54562.18
2019-05-20T07:34:35.102Z,54476.95
2019-05-20T07:37:04.225Z,54535.80
2019-05-20T07:39:32.703Z,54545.95
2019-05-20T07:42:02.646Z,54539.86
2019-05-20T07:44:31.367Z,54511.45
2019-05-20T07:47:00.124Z,54438.39
2019-05-20T07:49:30.149Z,54503.33
2019-05-20T07:51:59.372Z,54459.70
2019-05-20T07:54:29.123Z,54398.82
2019-05-20T07:57:00.589Z,54454.63
2019-05-20T07:59:31.763Z,54607.84
2019-05-20T08:02:00.932Z,54657.57
2019-05-20T08:04:29.807Z,54582.48
2019-05-20T08:06:58.404Z,54632.20
2019-05-20T08:09:26.829Z,54602.77
2019-05-20T08:11:55.558Z,54496.23
2019-05-20T08:14:25.360Z,54422.16
2019-05-20T08:16:53.766Z,54435.35
2019-05-20T08:19:22.457Z,54594.65
2019-05-20T08:21:51.455Z,54609.87
2019-05-20T08:24:19.843Z,54586.54
2019-05-20T08:26:48.317Z,54510.43
2019-05-20T08:29:17.102Z,54474.92
2019-05-20T08:31:45.543Z,54409.98
2019-05-20T08:34:14.279Z,54426.22
2019-05-20T08:36:43.023Z,54431.29
2019-05-20T08:39:11.771Z,54430.28
2019-05-20T08:41:40.177Z,54451.58
2019-05-20T08:44:08.636Z,54592.62
2019-05-20T08:46:37.014Z,54606.83
2019-05-20T08:49:10.557Z,54599.73
2019-05-20T08:51:35.826Z,54608.86
2019-05-20T08:54:04.624Z,54636.26
2019-05-20T08:56:33.027Z,54670.76
2019-05-20T08:59:01.419Z,54632.20
2019-05-20T09:01:29.823Z,54670.76
2019-05-20T09:03:58.565Z,54648.43
2019-05-20T09:06:26.972Z,54675.83
2019-05-20T09:08:55.372Z,54652.49
2019-05-20T09:11:24.229Z,54730.62
2019-05-20T09:13:52.711Z,54688.01
2019-05-20T09:16:21.093Z,54678.87
2019-05-20T09:18:49.756Z,54645.39
2019-05-20T09:21:18.375Z,54754.98
2019-05-20T09:23:46.989Z,54727.58
2019-05-20T09:26:15.648Z,54682.93
2019-05-20T09:28:44.055Z,54726.57
2019-05-20T09:31:12.940Z,54693.08
2019-05-20T09:33:42.038Z,54761.07
2019-05-20T09:36:10.487Z,54720.48
2019-05-20T09:38:39.247Z,54706.27
2019-05-20T09:41:07.678Z,54757.01
2019-05-20T09:43:36.083Z,54762.08
2019-05-20T09:46:08.007Z,54785.42
2019-05-20T09:48:35.002Z,54729.61
2019-05-20T09:51:03.499Z,54803.69
2019-05-20T09:53:32.176Z,54806.73
2019-05-20T09:56:00.783Z,54719.46
2019-05-20T09:58:29.135Z,54728.60
2019-05-20T10:00:57.540Z,54854.43
2019-05-20T10:03:26.206Z,54861.53
2019-05-20T10:05:54.902Z,54790.50
2019-05-20T10:08:37.438Z,54722.51
2019-05-20T10:10:54.008Z,54644.37
2019-05-20T10:13:22.416Z,54678.87
2019-05-20T10:15:50.937Z,54550.01
2019-05-20T10:18:35.953Z,54620.02
2019-05-20T10:20:52.435Z,54691.05
2019-05-20T10:23:21.055Z,54643.36
2019-05-20T10:25:49.461Z,54660.61
2019-05-20T10:28:17.941Z,54573.34
2019-05-20T10:30:46.434Z,54533.77
2019-05-20T10:33:14.850Z,54561.17
2019-05-20T10:35:43.371Z,54512.46
2019-05-20T10:38:11.733Z,54557.11
2019-05-20T10:40:40.142Z,54612.92
2019-05-20T10:43:08.823Z,54659.59
2019-05-20T10:45:37.626Z,54802.67
2019-05-20T10:48:08.750Z,54847.32
2019-05-20T10:50:36.164Z,54858.48
2019-05-20T10:53:04.815Z,54798.61
2019-05-20T10:55:33.245Z,54759.04
2019-05-20T10:58:01.856Z,54659.59
2019-05-20T11:00:30.358Z,54595.67
2019-05-20T11:02:59.087Z,54676.84
2019-05-20T11:05:27.710Z,54606.83
2019-05-20T11:07:56.187Z,54661.62
2019-05-20T11:10:24.825Z,54729.61
2019-05-20T11:12:53.228Z,54804.70
2019-05-20T11:15:21.911Z,54829.05
2019-05-20T11:17:50.331Z,54843.26
2019-05-20T11:20:18.872Z,54935.61
2019-05-20T11:22:47.261Z,54910.24
2019-05-20T11:25:15.917Z,54916.32
2019-05-20T11:27:44.318Z,54964.02
2019-05-20T11:30:13.251Z,54978.23
2019-05-20T11:32:41.719Z,54923.43
2019-05-20T11:35:11.205Z,54980.26
2019-05-20T11:37:39.628Z,54938.65
2019-05-20T11:40:09.951Z,54900.09
2019-05-20T11:42:38.931Z,54956.92
2019-05-20T11:45:10.742Z,54926.47
2019-05-20T11:47:39.206Z,54909.22
2019-05-20T11:50:08.940Z,54895.02
2019-05-20T11:52:37.509Z,54836.16
2019-05-20T11:55:06.874Z,54823.98
2019-05-20T11:57:35.550Z,54801.66
2019-05-20T12:00:09.271Z,54850.36
2019-05-20T12:02:37.654Z,54885.88
2019-05-20T12:05:16.720Z,54850.36
2019-05-20T12:07:45.321Z,54853.41
2019-05-20T12:10:14.035Z,54872.69
2019-05-20T12:12:45.908Z,54937.64
2019-05-20T12:15:13.107Z,54969.09
2019-05-20T12:17:41.506Z,54947.78
2019-05-20T12:20:12.411Z,54964.02
2019-05-20T12:22:41.093Z,55006.64
2019-05-20T12:25:10.017Z,54959.96
2019-05-20T12:27:38.431Z,54880.81
2019-05-20T12:30:07.884Z,54817.89
2019-05-20T12:32:36.448Z,54791.51
2019-05-20T12:35:09.775Z,54899.07
2019-05-20T12:37:38.556Z,54850.36
2019-05-20T12:40:08.470Z,54897.04
2019-05-20T12:42:37.225Z,54865.59
2019-05-20T12:45:08.764Z,54935.61
2019-05-20T12:47:37.350Z,54924.45
2019-05-20T12:50:07.497Z,54966.05
2019-05-20T12:52:37.561Z,54906.18
2019-05-20T12:55:09.547Z,54908.21
2019-05-20T12:57:37.386Z,54846.31
2019-05-20T13:00:10.972Z,54855.44
2019-05-20T13:02:40.233Z,54796.58
2019-05-20T13:05:09.204Z,54752.95
2019-05-20T13:07:37.596Z,54692.07
2019-05-20T13:10:26.991Z,54678.87
2019-05-20T13:12:40.103Z,54644.37
2019-05-20T13:15:10.199Z,54753.96
2019-05-20T13:17:43.862Z,54716.42
2019-05-20T13:20:09.703Z,54648.43
2019-05-20T13:22:38.430Z,54677.86
2019-05-20T13:25:07.362Z,54594.65
2019-05-20T13:27:36.001Z,54662.64
2019-05-20T13:30:06.493Z,54758.02
2019-05-20T13:32:35.127Z,54804.70
2019-05-20T13:35:04.157Z,54806.73
2019-05-20T13:37:32.903Z,54793.54
2019-05-20T13:40:03.272Z,54898.06
2019-05-20T13:42:31.446Z,54868.63
2019-05-20T13:45:00.116Z,54802.67
2019-05-20T13:47:28.497Z,54733.67
2019-05-20T13:49:56.906Z,54733.67
2019-05-20T13:52:25.299Z,54733.67
2019-05-20T13:54:53.706Z,54684.96
2019-05-20T13:57:22.350Z,54766.14
2019-05-20T13:59:51.022Z,54735.70
2019-05-20T14:02:19.425Z,54809.78
2019-05-20T14:04:47.971Z,54768.17
2019-05-20T14:07:16.687Z,54758.02
2019-05-20T14:09:45.083Z,54843.26
2019-05-20T14:12:13.480Z,54875.73
2019-05-20T14:14:41.894Z,54762.08
2019-05-20T14:17:10.628Z,54834.13
2019-05-20T14:19:39.469Z,54709.32
2019-05-20T14:22:08.208Z,54660.61
2019-05-20T14:24:36.809Z,54684.96
2019-05-20T14:27:06.108Z,54678.87
2019-05-20T14:29:34.515Z,54688.01
2019-05-20T14:32:11.416Z,54682.93
2019-05-20T14:34:41.063Z,54733.67
2019-05-20T14:37:09.535Z,54705.26
2019-05-20T14:39:39.983Z,54710.33
2019-05-20T14:42:08.684Z,54720.48
2019-05-20T14:44:37.121Z,54722.51
2019-05-20T14:47:06.777Z,54650.46
2019-05-20T14:49:35.403Z,54651.48
2019-05-20T14:52:03.921Z,54673.80
2019-05-20T14:54:32.333Z,54692.07
2019-05-20T14:57:00.779Z,54674.82
2019-05-20T14:59:29.230Z,54671.77
2019-05-20T15:01:57.988Z,54723.52
2019-05-20T15:04:26.455Z,54736.71
2019-05-20T15:06:55.010Z,54697.14
2019-05-20T15:09:23.463Z,54742.80
2019-05-20T15:11:51.865Z,54668.73
2019-05-20T15:14:20.269Z,54711.35
2019-05-20T15:16:48.679Z,54712.36
2019-05-20T15:19:17.077Z,54782.38
2019-05-20T15:21:45.493Z,54660.61
2019-05-20T15:24:13.908Z,54660.61
2019-05-20T15:26:42.840Z,54673.80
2019-05-20T15:29:26.954Z,54692.07
2019-05-20T15:31:41.667Z,54667.71
2019-05-20T15:34:10.061Z,54701.20
2019-05-20T15:36:38.468Z,54681.92
2019-05-20T15:39:07.444Z,54738.74
2019-05-20T15:41:35.892Z,54616.98
2019-05-20T15:44:04.578Z,54655.54
2019-05-20T15:46:32.971Z,54740.77
2019-05-20T15:49:01.388Z,54654.52
2019-05-20T15:51:29.782Z,54631.18
2019-05-20T15:53:58.252Z,54737.73
2019-05-20T15:56:26.664Z,54631.18
2019-05-20T15:58:55.520Z,54637.27
2019-05-20T16:01:23.925Z,54665.68
2019-05-20T16:03:52.593Z,54696.12
2019-05-20T16:06:20.975Z,54653.51
2019-05-20T16:08:49.384Z,54730.62
2019-05-20T16:11:17.784Z,54645.39
2019-05-20T16:13:46.424Z,54661.62
2019-05-20T16:16:14.837Z,54642.34
2019-05-20T16:18:43.250Z,54669.74
2019-05-20T16:21:15.312Z,54666.70
2019-05-20T16:23:43.697Z,54644.37
2019-05-20T16:26:16.696Z,54685.98
2019-05-20T16:28:45.098Z,54564.21
2019-05-20T16:31:13.542Z,54601.76
2019-05-20T16:33:41.928Z,54622.05
2019-05-20T16:36:10.351Z,54667.71
2019-05-20T16:38:38.717Z,54679.89
2019-05-20T16:41:07.127Z,54708.30
2019-05-20T16:43:35.827Z,54658.58
2019-05-20T16:46:04.277Z,54611.91
2019-05-20T16:48:32.716Z,54599.73
2019-05-20T16:51:01.125Z,54589.58
2019-05-20T16:53:29.515Z,54541.89
2019-05-20T16:55:58.152Z,54621.04
2019-05-20T16:58:26.842Z,54537.83
2019-05-20T17:00:55.239Z,54553.05
2019-05-20T17:03:23.627Z,54587.55
2019-05-20T17:05:52.040Z,54607.84
2019-05-20T17:08:20.432Z,54596.68
2019-05-20T17:10:48.905Z,54614.95
2019-05-20T17:13:17.299Z,54727.58
2019-05-20T17:15:46.031Z,54740.77
2019-05-20T17:18:14.722Z,54787.45
2019-05-20T17:20:46.040Z,54435.35
2019-05-20T17:23:13.365Z,54700.18
2019-05-20T17:25:41.757Z,54688.01
2019-05-20T17:28:10.173Z,54724.54
2019-05-20T17:30:45.494Z,54697.14
2019-05-20T17:33:09.103Z,54678.87
2019-05-20T17:35:37.475Z,54729.61
2019-05-20T17:38:06.208Z,54716.42
2019-05-20T17:40:34.615Z,54730.62
2019-05-20T17:43:03.571Z,54683.95
2019-05-20T17:45:31.977Z,54686.99
2019-05-20T17:48:00.744Z,54625.09
2019-05-20T17:50:29.279Z,54652.49
2019-05-20T17:52:57.753Z,54602.77
2019-05-20T17:55:26.247Z,54605.82
2019-05-20T17:57:54.798Z,54591.61
2019-05-20T18:00:23.703Z,54562.18
2019-05-20T18:02:52.746Z,54559.14
2019-05-20T18:05:21.341Z,54575.37
2019-05-20T18:07:49.884Z,54554.07
2019-05-20T18:10:21.203Z,54573.34
2019-05-20T18:12:49.581Z,54586.54
2019-05-20T18:15:18.419Z,54536.82
2019-05-20T18:17:46.828Z,54506.37
2019-05-20T18:20:19.207Z,54526.67
2019-05-20T18:22:47.792Z,54539.86
2019-05-20T18:25:18.189Z,54546.96
2019-05-20T18:27:46.730Z,54548.99
2019-05-20T18:30:15.743Z,54522.61
2019-05-20T18:32:45.886Z,54478.98
2019-05-20T18:35:14.406Z,54509.42
2019-05-20T18:37:42.806Z,54472.89
2019-05-20T18:40:14.533Z,54489.13
2019-05-20T18:42:41.924Z,54498.26
2019-05-20T18:45:15.949Z,54467.82
2019-05-20T18:47:43.497Z,54454.63
2019-05-20T18:50:12.544Z,54451.58
2019-05-20T18:52:41.048Z,54453.61
2019-05-20T18:55:09.593Z,54463.76
2019-05-20T18:57:38.009Z,54444.48
2019-05-20T19:00:09.543Z,54389.69
2019-05-20T19:02:38.001Z,54375.48
2019-05-20T19:05:11.577Z,54370.41
2019-05-20T19:07:40.139Z,54344.03
2019-05-20T19:10:09.743Z,54389.69
2019-05-20T19:12:38.212Z,54379.54
2019-05-20T19:15:08.359Z,54355.19
2019-05-20T19:17:37.264Z,54305.48
2019-05-20T19:20:11.445Z,54312.58
2019-05-20T19:22:41.820Z,54363.31
2019-05-20T19:25:13.775Z,54353.16
2019-05-20T19:27:42.942Z,54414.04
2019-05-20T19:30:11.751Z,54402.88
2019-05-20T19:32:40.230Z,54381.57
2019-05-20T19:35:09.367Z,54278.08
2019-05-20T19:37:37.938Z,54246.63
2019-05-20T19:40:08.982Z,54239.53
2019-05-20T19:42:39.109Z,54218.22
2019-05-20T19:45:09.971Z,54152.27
2019-05-20T19:47:45.026Z,54124.88
2019-05-20T19:50:14.228Z,54109.66
2019-05-20T19:52:42.821Z,54172.56
2019-05-20T19:55:11.644Z,54111.69
2019-05-20T19:57:40.064Z,54115.75
2019-05-20T20:00:09.507Z,54047.77
2019-05-20T20:02:37.895Z,54117.77
2019-05-20T20:05:07.861Z,54086.32
2019-05-20T20:07:36.351Z,54068.06
2019-05-20T20:10:05.951Z,54053.86
2019-05-20T20:12:34.365Z,53990.95
2019-05-20T20:15:02.773Z,54046.75
2019-05-20T20:17:31.171Z,54091.40
2019-05-20T20:19:59.604Z,54057.91
2019-05-20T20:22:27.977Z,54052.84
2019-05-20T20:24:56.628Z,54049.80
2019-05-20T20:27:25.021Z,54042.70
2019-05-20T20:29:53.435Z,54060.96
2019-05-20T20:32:36.772Z,54060.96
2019-05-20T20:34:52.324Z,54029.51
2019-05-20T20:37:20.852Z,54061.97
2019-05-20T20:39:49.249Z,54027.48
2019-05-20T20:42:17.641Z,53982.84
2019-05-20T20:44:46.358Z,54017.34
2019-05-20T20:47:22.648Z,53999.07
2019-05-20T20:49:48.320Z,53955.45
2019-05-20T20:52:17.048Z,53949.36
2019-05-20T20:54:45.726Z,53950.37
2019-05-20T20:57:14.125Z,53958.49
2019-05-20T20:59:42.897Z,53968.64
2019-05-20T21:02:11.286Z,53961.53
2019-05-20T21:04:41.556Z,53922.98
2019-05-20T21:07:11.665Z,53941.24
2019-05-20T21:09:40.081Z,53872.26
2019-05-20T21:12:08.487Z,53930.08
2019-05-20T21:14:36.871Z,53960.52
2019-05-20T21:17:05.781Z,53935.16
2019-05-20T21:19:34.566Z,53917.91
2019-05-20T21:22:03.465Z,53957.48
2019-05-20T21:24:31.852Z,53900.66
2019-05-20T21:27:01.904Z,53880.37
2019-05-20T21:29:32.538Z,53915.88
2019-05-20T21:32:00.421Z,53894.57
2019-05-20T21:34:29.180Z,53827.62
2019-05-20T21:36:57.564Z,53909.79
2019-05-20T21:39:26.349Z,53890.52
2019-05-20T21:41:54.746Z,53884.43
2019-05-20T21:44:23.417Z,53829.65
2019-05-20T21:46:52.116Z,53785.01
2019-05-20T21:49:20.611Z,53763.70
2019-05-20T21:51:49.008Z,53731.24
2019-05-20T21:54:17.663Z,53717.04
2019-05-20T21:56:46.110Z,53761.68
2019-05-20T21:59:15.662Z,53743.41
2019-05-20T22:01:45.808Z,53769.79
2019-05-20T22:04:14.471Z,53765.73
2019-05-20T22:06:43.367Z,53739.36
2019-05-20T22:09:12.052Z,53700.81
2019-05-20T22:11:40.500Z,53715.01
2019-05-20T22:14:08.866Z,53630.81
2019-05-20T22:16:37.632Z,53625.74
2019-05-20T22:19:06.404Z,53597.33
2019-05-20T22:21:36.448Z,53626.75
2019-05-20T22:24:06.589Z,53543.57
2019-05-20T22:26:34.995Z,53495.89
2019-05-20T22:29:03.453Z,53484.73
2019-05-20T22:31:31.943Z,53449.23
2019-05-20T22:34:00.417Z,53389.38
2019-05-20T22:36:28.827Z,53399.52
2019-05-20T22:38:58.898Z,53361.99
2019-05-20T22:41:27.387Z,53355.90
2019-05-20T22:43:55.782Z,53304.17
2019-05-20T22:46:24.188Z,53241.28
2019-05-20T22:48:52.955Z,53209.84
2019-05-20T22:51:21.633Z,53198.68
2019-05-20T22:53:50.430Z,53115.50
2019-05-20T22:56:18.841Z,53170.28
2019-05-20T22:58:47.616Z,53145.93
2019-05-20T23:01:16.286Z,53110.43
2019-05-20T23:03:55.934Z,53072.90
2019-05-20T23:06:15.118Z,53063.77
2019-05-20T23:08:43.508Z,53045.52
2019-05-20T23:11:11.901Z,53036.39
2019-05-20T23:13:40.390Z,52962.34
2019-05-20T23:16:09.153Z,52990.74
2019-05-20T23:18:37.835Z,52961.33
2019-05-20T23:21:06.222Z,52951.19
2019-05-20T23:23:34.735Z,52917.71
2019-05-20T23:26:03.154Z,52930.90
2019-05-20T23:28:31.523Z,52972.49
2019-05-20T23:30:59.928Z,52956.26
2019-05-20T23:33:28.329Z,52934.96
2019-05-20T23:35:59.781Z,52929.89
2019-05-20T23:38:28.373Z,52900.47
2019-05-20T23:40:56.767Z,52914.67
2019-05-20T23:43:25.176Z,52943.07
2019-05-20T23:45:53.959Z,52916.70
2019-05-20T23:48:22.353Z,52894.39
2019-05-20T23:50:51.009Z,52876.13
2019-05-20T23:53:19.396Z,52906.56
2019-05-20T23:55:48.100Z,52870.05
2019-05-20T23:58:16.776Z,52874.10
